createdAt,value
2023-04-20T00:02:49.736Z,25.53
2023-04-20T00:06:02.173Z,26.03
2023-04-20T00:09:15.124Z,25.20
2023-04-20T00:12:27.877Z,26.45
2023-04-20T00:15:40.712Z,26.33
2023-04-20T00:18:55.474Z,27.08
2023-04-20T00:22:08.006Z,25.50
2023-04-20T00:25:20.360Z,26.03
2023-04-20T00:28:32.599Z,24.00
2023-04-20T00:31:45.232Z,26.23
2023-04-20T00:34:59.226Z,28.10
2023-04-20T00:38:11.374Z,28.93
2023-04-20T00:41:23.773Z,27.23
2023-04-20T00:44:37.801Z,28.95
2023-04-20T00:47:50.069Z,28.03
2023-04-20T00:51:02.758Z,28.10
2023-04-20T00:54:15.675Z,29.10
2023-04-20T00:57:28.377Z,28.00
2023-04-20T01:00:44.588Z,28.38
2023-04-20T01:03:57.264Z,28.13
2023-04-20T01:07:10.131Z,27.90
2023-04-20T01:10:22.445Z,28.35
2023-04-20T01:13:34.671Z,28.05
2023-04-20T01:16:47.505Z,29.03
2023-04-20T01:20:00.284Z,30.10
2023-04-20T01:23:13.153Z,28.08
2023-04-20T01:26:28.175Z,27.23
2023-04-20T01:29:40.969Z,27.25
2023-04-20T01:32:55.035Z,26.90
2023-04-20T01:36:08.638Z,26.25
2023-04-20T01:39:21.724Z,29.53
2023-04-20T01:42:34.157Z,27.03
2023-04-20T01:45:46.509Z,26.45
2023-04-20T01:48:58.754Z,25.85
2023-04-20T01:52:11.789Z,26.00
2023-04-20T01:55:25.541Z,24.10
2023-04-20T01:58:37.950Z,24.95
2023-04-20T02:01:50.386Z,24.03
2023-04-20T02:05:02.673Z,24.43
2023-04-20T02:08:14.971Z,24.90
2023-04-20T02:11:27.182Z,23.98
2023-04-20T02:14:39.082Z,24.05
2023-04-20T02:17:54.031Z,25.85
2023-04-20T02:21:06.324Z,26.23
2023-04-20T02:24:18.335Z,25.60
2023-04-20T02:27:30.482Z,25.18
2023-04-20T02:30:42.672Z,25.03
2023-04-20T02:33:56.720Z,24.45
2023-04-20T02:37:09.200Z,25.38
2023-04-20T02:40:21.549Z,24.80
2023-04-20T02:43:35.541Z,27.15
2023-04-20T02:46:48.738Z,28.35
2023-04-20T02:50:02.651Z,31.60
2023-04-20T02:53:16.537Z,30.95
2023-04-20T02:56:31.047Z,33.08
2023-04-20T02:59:46.553Z,37.65
2023-04-20T03:03:12.827Z,34.53
2023-04-20T03:06:26.849Z,36.88
2023-04-20T03:09:41.255Z,38.48
2023-04-20T03:12:55.261Z,37.98
2023-04-20T03:16:18.588Z,37.95
2023-04-20T03:19:35.552Z,37.15
2023-04-20T03:22:48.686Z,35.15
2023-04-20T03:26:01.957Z,32.08
2023-04-20T03:29:33.145Z,32.30
2023-04-20T03:32:46.719Z,32.35
2023-04-20T03:35:58.991Z,32.08
2023-04-20T03:39:11.678Z,31.30
2023-04-20T03:42:23.719Z,30.75
2023-04-20T03:45:36.302Z,32.28
2023-04-20T03:48:48.330Z,30.80
2023-04-20T03:52:00.503Z,31.13
2023-04-20T03:55:14.858Z,30.40
2023-04-20T03:58:29.016Z,29.60
2023-04-20T04:01:48.870Z,28.43
2023-04-20T04:05:01.893Z,28.83
2023-04-20T04:08:14.121Z,27.10
2023-04-20T04:11:27.017Z,27.98
2023-04-20T04:14:39.701Z,28.75
2023-04-20T04:17:53.081Z,27.90
2023-04-20T04:21:05.404Z,25.73
2023-04-20T04:24:19.807Z,28.55
2023-04-20T04:27:35.047Z,27.65
2023-04-20T04:30:47.555Z,27.35
2023-04-20T04:34:00.140Z,26.63
2023-04-20T04:37:14.633Z,26.43
2023-04-20T04:40:29.441Z,26.80
2023-04-20T04:43:42.450Z,25.08
2023-04-20T04:47:02.820Z,26.55
2023-04-20T04:50:17.911Z,26.95
2023-04-20T04:53:31.140Z,50.08
2023-04-20T04:56:43.243Z,59.25
2023-04-20T04:59:55.898Z,31.30
2023-04-20T05:03:08.235Z,28.05
2023-04-20T05:06:20.514Z,26.83
2023-04-20T05:09:33.796Z,28.90
2023-04-20T05:12:48.870Z,27.58
2023-04-20T05:16:01.334Z,27.53
2023-04-20T05:19:13.367Z,26.35
2023-04-20T05:22:25.805Z,26.80
2023-04-20T05:25:38.633Z,54.70
2023-04-20T05:28:51.549Z,29.05
2023-04-20T05:32:04.140Z,28.03
2023-04-20T05:35:18.105Z,28.25
2023-04-20T05:38:31.053Z,28.10
2023-04-20T05:41:43.556Z,29.13
2023-04-20T05:44:56.118Z,32.65
2023-04-20T05:48:08.719Z,62.45
2023-04-20T05:51:22.318Z,29.95
2023-04-20T05:54:34.501Z,28.13
2023-04-20T05:57:46.887Z,30.25
2023-04-20T06:00:59.082Z,27.73
2023-04-20T06:04:11.502Z,25.50
2023-04-20T06:07:24.118Z,25.50
2023-04-20T06:10:36.530Z,26.03
2023-04-20T06:13:48.706Z,26.73
2023-04-20T06:17:01.041Z,99.68
2023-04-20T06:20:17.527Z,36.05
2023-04-20T06:23:29.754Z,26.95
2023-04-20T06:26:42.227Z,31.80
2023-04-20T06:29:55.185Z,28.95
2023-04-20T06:33:08.763Z,27.63
2023-04-20T06:36:21.840Z,25.48
2023-04-20T06:39:34.013Z,26.10
2023-04-20T06:42:46.584Z,25.40
2023-04-20T06:45:58.783Z,28.15
2023-04-20T06:49:11.203Z,22.28
2023-04-20T06:52:24.213Z,22.35
2023-04-20T06:55:36.804Z,22.28
2023-04-20T06:58:49.504Z,21.58
2023-04-20T07:02:01.924Z,22.08
2023-04-20T07:05:15.683Z,23.02
2023-04-20T07:08:28.578Z,32.48
2023-04-20T07:11:42.128Z,24.83
2023-04-20T07:14:55.198Z,25.08
2023-04-20T07:18:07.422Z,23.10
2023-04-20T07:21:19.806Z,23.83
2023-04-20T07:24:32.191Z,23.45
2023-04-20T07:27:46.022Z,21.93
2023-04-20T07:30:59.722Z,22.03
2023-04-20T07:34:12.130Z,21.83
2023-04-20T07:37:26.852Z,21.88
2023-04-20T07:40:38.782Z,20.88
2023-04-20T07:43:50.889Z,22.35
2023-04-20T07:47:03.390Z,22.48
2023-04-20T07:50:17.122Z,25.30
2023-04-20T07:53:29.388Z,26.85
2023-04-20T07:56:41.416Z,19.83
2023-04-20T07:59:54.929Z,23.13
2023-04-20T08:03:07.110Z,21.18
2023-04-20T08:06:19.579Z,21.93
2023-04-20T08:09:31.721Z,19.20
2023-04-20T08:12:44.656Z,20.93
2023-04-20T08:15:56.839Z,19.75
2023-04-20T08:19:10.632Z,19.35
2023-04-20T08:22:24.598Z,18.50
2023-04-20T08:25:37.376Z,18.73
2023-04-20T08:28:49.625Z,20.43
2023-04-20T08:32:02.126Z,21.83
2023-04-20T08:35:15.491Z,19.73
2023-04-20T08:38:33.727Z,19.68
2023-04-20T08:41:42.304Z,22.43
2023-04-20T08:44:54.804Z,53.03
2023-04-20T08:48:13.167Z,39.00
2023-04-20T08:51:25.562Z,24.88
2023-04-20T08:54:42.824Z,23.30
2023-04-20T08:57:54.268Z,24.43
2023-04-20T09:01:06.881Z,23.88
2023-04-20T09:04:28.759Z,20.83
2023-04-20T09:07:41.233Z,20.98
2023-04-20T09:10:53.491Z,17.23
2023-04-20T09:14:12.805Z,14.65
2023-04-20T09:17:36.411Z,13.33
2023-04-20T09:20:49.938Z,12.83
2023-04-20T09:24:10.832Z,13.00
2023-04-20T09:27:27.032Z,12.10
2023-04-20T09:30:47.603Z,12.17
2023-04-20T09:34:08.288Z,12.43
2023-04-20T09:37:23.176Z,11.73
2023-04-20T09:40:36.267Z,12.20
2023-04-20T09:43:49.057Z,12.35
2023-04-20T09:47:01.581Z,32.40
2023-04-20T09:50:26.637Z,24.15
2023-04-20T09:53:32.442Z,15.18
2023-04-20T09:56:45.890Z,11.55
2023-04-20T10:00:02.372Z,13.08
2023-04-20T10:03:19.112Z,13.35
2023-04-20T10:06:34.276Z,13.78
2023-04-20T10:09:46.778Z,11.58
2023-04-20T10:13:00.819Z,12.28
2023-04-20T10:16:23.195Z,12.45
2023-04-20T10:19:47.777Z,12.00
2023-04-20T10:23:03.556Z,11.58
2023-04-20T10:26:16.888Z,10.00
2023-04-20T10:29:35.876Z,9.90
2023-04-20T10:32:48.793Z,9.13
2023-04-20T10:36:02.149Z,8.28
2023-04-20T10:39:27.961Z,9.35
2023-04-20T10:42:50.689Z,22.05
2023-04-20T10:46:02.956Z,25.65
2023-04-20T10:49:15.412Z,10.93
2023-04-20T10:52:40.967Z,7.95
2023-04-20T10:55:55.804Z,8.75
2023-04-20T10:59:16.464Z,9.95
2023-04-20T11:02:29.197Z,10.88
2023-04-20T11:05:41.975Z,9.65
2023-04-20T11:08:54.461Z,9.23
2023-04-20T11:12:14.426Z,11.33
2023-04-20T11:15:36.790Z,10.88
2023-04-20T11:18:59.414Z,10.10
2023-04-20T11:22:12.807Z,11.80
2023-04-20T11:25:25.000Z,11.60
2023-04-20T11:28:38.947Z,12.43
2023-04-20T11:31:58.429Z,11.83
2023-04-20T11:35:14.971Z,10.78
2023-04-20T11:38:37.974Z,12.05
2023-04-20T11:41:50.248Z,11.33
2023-04-20T11:45:03.514Z,7.08
2023-04-20T11:48:16.054Z,7.15
2023-04-20T11:51:28.506Z,7.63
2023-04-20T11:54:40.750Z,6.60
2023-04-20T11:57:52.869Z,5.35
2023-04-20T12:01:05.671Z,6.50
2023-04-20T12:04:18.437Z,6.65
2023-04-20T12:07:31.838Z,7.43
2023-04-20T12:10:47.309Z,5.73
2023-04-20T12:14:00.585Z,5.63
2023-04-20T12:17:12.966Z,5.50
2023-04-20T12:20:25.481Z,5.38
2023-04-20T12:23:37.676Z,5.10
2023-04-20T12:26:50.165Z,5.60
2023-04-20T12:30:02.409Z,5.18
2023-04-20T12:33:14.872Z,5.68
2023-04-20T12:36:27.906Z,5.10
2023-04-20T12:39:40.269Z,5.83
2023-04-20T12:42:52.295Z,5.30
2023-04-20T12:46:04.464Z,5.70
2023-04-20T12:49:17.274Z,5.43
2023-04-20T12:52:29.788Z,5.98
2023-04-20T12:55:42.620Z,5.95
2023-04-20T12:58:54.764Z,5.70
2023-04-20T13:02:06.978Z,6.80
2023-04-20T13:05:20.062Z,6.05
2023-04-20T13:08:32.364Z,6.93
2023-04-20T13:11:44.880Z,7.00
2023-04-20T13:14:57.497Z,12.88
2023-04-20T13:18:10.464Z,8.80
2023-04-20T13:21:22.939Z,7.33
2023-04-20T13:24:35.358Z,6.90
2023-04-20T13:27:47.680Z,6.78
2023-04-20T13:31:00.419Z,6.00
2023-04-20T13:34:13.045Z,5.43
2023-04-20T13:37:26.077Z,4.83
2023-04-20T13:40:39.342Z,5.93
2023-04-20T13:43:52.164Z,5.23
2023-04-20T13:47:04.485Z,5.48
2023-04-20T13:50:18.020Z,5.70
2023-04-20T13:53:30.182Z,6.05
2023-04-20T13:56:43.100Z,5.13
2023-04-20T13:59:54.995Z,5.28
2023-04-20T14:03:07.435Z,7.25
2023-04-20T14:06:19.963Z,9.93
2023-04-20T14:09:32.766Z,5.15
2023-04-20T14:12:44.887Z,4.98
2023-04-20T14:15:58.724Z,4.30
2023-04-20T14:19:11.149Z,4.90
2023-04-20T14:22:23.381Z,4.48
2023-04-20T14:25:35.680Z,4.30
2023-04-20T14:28:47.777Z,6.48
2023-04-20T14:32:00.240Z,4.68
2023-04-20T14:35:14.340Z,4.88
2023-04-20T14:38:26.784Z,4.20
2023-04-20T14:41:39.990Z,4.40
2023-04-20T14:44:52.291Z,3.93
2023-04-20T14:48:04.781Z,16.95
2023-04-20T14:51:18.962Z,5.78
2023-04-20T14:54:32.807Z,5.18
2023-04-20T14:57:45.284Z,6.15
2023-04-20T15:00:58.348Z,4.20
2023-04-20T15:04:11.120Z,4.35
2023-04-20T15:07:23.482Z,5.33
2023-04-20T15:10:37.889Z,4.90
2023-04-20T15:13:52.283Z,5.45
2023-04-20T15:17:04.384Z,5.73
2023-04-20T15:20:19.707Z,5.68
2023-04-20T15:23:32.189Z,5.50
2023-04-20T15:26:44.481Z,7.20
2023-04-20T15:29:58.338Z,5.23
2023-04-20T15:33:12.179Z,5.78
2023-04-20T15:36:25.807Z,5.65
2023-04-20T15:39:38.116Z,21.28
2023-04-20T15:42:50.323Z,53.65
2023-04-20T15:46:03.794Z,17.38
2023-04-20T15:49:16.346Z,6.58
2023-04-20T15:52:28.818Z,4.90
2023-04-20T15:55:44.201Z,5.15
2023-04-20T15:58:56.871Z,4.58
2023-04-20T16:02:09.242Z,4.70
2023-04-20T16:05:21.575Z,4.50
2023-04-20T16:08:33.765Z,5.38
2023-04-20T16:11:46.897Z,4.83
2023-04-20T16:14:58.941Z,4.35
2023-04-20T16:18:11.776Z,4.48
2023-04-20T16:21:24.665Z,5.60
2023-04-20T16:24:37.044Z,4.65
2023-04-20T16:27:49.166Z,7.33
2023-04-20T16:31:01.638Z,6.40
2023-04-20T16:34:14.646Z,5.45
2023-04-20T16:37:26.971Z,4.03
2023-04-20T16:40:39.585Z,4.50
2023-04-20T16:43:52.122Z,4.43
2023-04-20T16:47:05.394Z,4.43
2023-04-20T16:50:19.877Z,5.23
2023-04-20T16:53:32.736Z,4.43
2023-04-20T16:56:45.428Z,4.63
2023-04-20T16:59:57.725Z,4.85
2023-04-20T17:03:13.735Z,4.90
2023-04-20T17:06:26.347Z,6.47
2023-04-20T17:09:39.477Z,6.80
2023-04-20T17:12:52.308Z,10.00
2023-04-20T17:16:04.661Z,11.20
2023-04-20T17:19:17.116Z,6.35
2023-04-20T17:22:30.152Z,5.20
2023-04-20T17:25:43.888Z,4.90
2023-04-20T17:28:56.182Z,8.58
2023-04-20T17:32:09.565Z,6.25
2023-04-20T17:35:22.941Z,6.08
2023-04-20T17:38:37.006Z,6.60
2023-04-20T17:41:50.261Z,5.83
2023-04-20T17:45:02.442Z,6.80
2023-04-20T17:48:14.999Z,6.78
2023-04-20T17:51:28.003Z,7.15
2023-04-20T17:54:40.386Z,4.98
2023-04-20T17:57:53.026Z,5.18
2023-04-20T18:01:05.303Z,5.03
2023-04-20T18:07:19.766Z,5.00
2023-04-20T18:10:32.311Z,4.65
2023-04-20T18:13:45.381Z,4.60
2023-04-20T18:16:58.991Z,5.60
2023-04-20T18:20:14.324Z,5.45
2023-04-20T18:23:26.437Z,5.25
2023-04-20T18:26:40.273Z,5.75
2023-04-20T18:29:54.006Z,7.38
2023-04-20T18:39:07.768Z,20.35
2023-04-20T18:51:20.761Z,8.45
2023-04-20T18:54:33.262Z,8.50
2023-04-20T18:57:45.371Z,10.10
2023-04-20T19:00:57.909Z,7.78
2023-04-20T19:04:13.182Z,8.68
2023-04-20T19:07:25.762Z,13.53
2023-04-20T19:10:37.924Z,9.20
2023-04-20T19:13:50.044Z,8.15
2023-04-20T19:17:02.244Z,8.08
2023-04-20T19:20:17.626Z,8.65
2023-04-20T19:23:30.092Z,8.75
2023-04-20T19:26:42.278Z,19.18
2023-04-20T19:29:54.449Z,8.40
2023-04-20T19:33:06.659Z,8.85
2023-04-20T19:36:19.735Z,8.68
2023-04-20T19:39:33.643Z,9.40
2023-04-20T19:42:48.588Z,8.48
2023-04-20T19:46:01.787Z,7.98
2023-04-20T19:49:14.156Z,7.85
2023-04-20T19:52:26.580Z,8.80
2023-04-20T19:55:38.965Z,8.68
2023-04-20T19:58:51.201Z,9.38
2023-04-20T20:02:03.673Z,9.08
2023-04-20T20:05:17.106Z,8.83
2023-04-20T20:08:29.161Z,10.45
2023-04-20T20:11:43.745Z,10.13
2023-04-20T20:14:56.410Z,9.55
2023-04-20T20:18:10.910Z,10.48
2023-04-20T20:21:23.167Z,9.60
2023-04-20T20:24:35.601Z,9.93
2023-04-20T20:27:48.711Z,9.68
2023-04-20T20:31:01.836Z,9.90
2023-04-20T20:34:14.768Z,9.40
2023-04-20T20:37:27.221Z,8.83
2023-04-20T20:40:39.974Z,9.68
2023-04-20T20:43:53.041Z,9.28
2023-04-20T20:47:05.349Z,9.85
2023-04-20T20:50:20.301Z,10.08
2023-04-20T20:53:32.643Z,10.40
2023-04-20T20:56:44.580Z,10.25
2023-04-20T21:02:57.403Z,10.33
2023-04-20T21:06:10.221Z,9.90
2023-04-20T21:09:22.267Z,9.88
2023-04-20T21:12:34.317Z,9.73
2023-04-20T21:21:46.590Z,10.70
2023-04-20T21:24:58.616Z,9.30
2023-04-20T21:28:11.000Z,10.23
2023-04-20T21:31:23.053Z,8.95
2023-04-20T21:34:35.094Z,10.33
2023-04-20T21:37:47.169Z,10.68
2023-04-20T21:40:59.155Z,10.40
2023-04-20T21:44:11.482Z,12.18
2023-04-20T21:47:23.484Z,12.43
2023-04-20T21:50:35.740Z,12.70
2023-04-20T21:53:48.149Z,13.70
2023-04-20T21:57:00.173Z,14.80
2023-04-20T22:00:15.692Z,13.65
2023-04-20T22:03:29.895Z,12.68
2023-04-20T22:06:42.054Z,12.25
2023-04-20T22:09:54.196Z,10.25
2023-04-20T22:13:06.669Z,10.90
2023-04-20T22:16:20.937Z,10.80
2023-04-20T22:19:33.717Z,10.70
2023-04-20T22:22:46.544Z,10.73
2023-04-20T22:25:58.740Z,10.68
2023-04-20T22:29:11.069Z,10.45
2023-04-20T22:32:23.193Z,11.38
2023-04-20T22:35:35.429Z,10.78
2023-04-20T22:38:47.427Z,11.73
2023-04-20T22:41:59.539Z,11.33
2023-04-20T22:45:14.509Z,11.23
2023-04-20T22:48:26.820Z,11.43
2023-04-20T22:51:38.816Z,11.43
2023-04-20T22:54:52.061Z,12.23
2023-04-20T22:58:04.149Z,11.70
2023-04-20T23:01:16.191Z,11.80
2023-04-20T23:04:28.267Z,12.33
2023-04-20T23:07:41.625Z,11.93
2023-04-20T23:10:53.877Z,11.85
2023-04-20T23:14:06.460Z,10.70
2023-04-20T23:17:18.447Z,11.08
2023-04-20T23:20:31.219Z,11.80
2023-04-20T23:23:43.313Z,12.25
2023-04-20T23:26:55.277Z,12.33
2023-04-20T23:30:07.482Z,11.78
2023-04-20T23:33:19.362Z,12.58
2023-04-20T23:36:31.451Z,11.55
2023-04-20T23:39:45.550Z,12.23
2023-04-20T23:42:57.547Z,12.70
2023-04-20T23:46:09.701Z,11.43
2023-04-20T23:49:21.839Z,11.78
2023-04-20T23:52:34.179Z,12.55
2023-04-20T23:55:48.313Z,12.45
2023-04-20T23:59:00.427Z,11.13
